Time;durP1;ratioP1;P1;durP2;ratioP2;P2;SDS_P1;SDS_P2;PMS_P1;PMS_P2;Temp;Humidity;BMP_temperature;BMP_pressure;BME280_temperature;BME280_humidity;BME280_pressure;Samples;Min_cycle;Max_cycle;Signal;HPM_P1;HPM_P2
2023/09/17 00:00:44;;;;;;;59.53;53.97;;;13.50;99.90;;;;;;6159274;23;20075;-82
2023/09/17 00:03:13;;;;;;;44.42;40.55;;;13.50;99.90;;;;;;6184147;23;20005;-82
2023/09/17 00:05:38;;;;;;;55.80;50.90;;;13.50;99.90;;;;;;6183977;23;20009;-82
2023/09/17 00:08:04;;;;;;;50.60;46.03;;;13.50;99.90;;;;;;6159664;23;20525;-83
2023/09/17 00:10:30;;;;;;;49.38;45.05;;;13.50;99.90;;;;;;6159385;23;20021;-82
2023/09/17 00:12:56;;;;;;;48.55;44.15;;;13.40;99.90;;;;;;6158987;23;20009;-82
2023/09/17 00:15:25;;;;;;;48.97;44.33;;;13.40;99.90;;;;;;6159262;23;20335;-82
2023/09/17 00:17:51;;;;;;;58.25;53.33;;;13.40;99.90;;;;;;6184369;23;20363;-83
2023/09/17 00:20:17;;;;;;;62.13;56.75;;;13.50;99.90;;;;;;6184201;23;20012;-82
2023/09/17 00:22:42;;;;;;;55.58;50.80;;;13.30;99.90;;;;;;6159135;23;20040;-82
2023/09/17 00:25:08;;;;;;;54.72;50.20;;;13.40;99.90;;;;;;6159369;23;20636;-83
2023/09/17 00:27:34;;;;;;;57.75;52.40;;;13.30;99.90;;;;;;6183021;23;20035;-82
2023/09/17 00:29:59;;;;;;;56.80;51.83;;;13.30;99.90;;;;;;6158235;23;20005;-82
2023/09/17 00:32:25;;;;;;;47.75;43.65;;;13.30;99.90;;;;;;6159116;23;20013;-82
2023/09/17 00:34:51;;;;;;;55.20;50.38;;;13.30;99.90;;;;;;6158692;23;20012;-81
2023/09/17 00:37:18;;;;;;;49.20;44.83;;;13.30;99.90;;;;;;6184026;23;20521;-82
2023/09/17 00:39:44;;;;;;;55.72;50.63;;;13.30;99.90;;;;;;6183879;23;20016;-81
2023/09/17 00:42:10;;;;;;;56.15;51.03;;;13.30;99.90;;;;;;6158312;23;20009;-82
2023/09/17 00:44:36;;;;;;;53.40;48.53;;;13.30;99.90;;;;;;6184143;23;20021;-82
2023/09/17 00:47:04;;;;;;;56.00;50.85;;;13.30;99.90;;;;;;6183911;23;20012;-82
2023/09/17 00:49:31;;;;;;;54.20;49.00;;;13.30;99.90;;;;;;6159236;23;20023;-82
2023/09/17 00:51:57;;;;;;;53.20;48.47;;;13.30;99.90;;;;;;6184067;23;20021;-82
2023/09/17 00:54:25;;;;;;;57.28;52.25;;;13.30;99.90;;;;;;6159003;23;20018;-82
2023/09/17 00:56:51;;;;;;;57.10;52.20;;;13.30;99.90;;;;;;6183798;23;20012;-82
2023/09/17 00:59:17;;;;;;;53.50;48.53;;;13.30;99.90;;;;;;6185667;23;20063;-82
2023/09/17 01:01:44;;;;;;;54.03;48.88;;;13.60;99.90;;;;;;6185670;23;20351;-82
2023/09/17 01:04:12;;;;;;;55.30;50.25;;;13.50;99.90;;;;;;6185815;23;20024;-81
2023/09/17 01:06:40;;;;;;;52.30;47.22;;;13.30;99.90;;;;;;6185649;23;20016;-82
2023/09/17 01:09:07;;;;;;;54.50;49.30;;;13.30;99.90;;;;;;6186079;23;20036;-83
2023/09/17 01:11:35;;;;;;;55.30;49.85;;;13.40;99.90;;;;;;6185224;23;20047;-82
2023/09/17 01:14:15;;;;;;;54.83;49.88;;;13.30;99.90;;;;;;6185512;23;20094;-82
2023/09/17 01:16:42;;;;;;;49.05;44.67;;;13.30;99.90;;;;;;6185826;23;20015;-82
2023/09/17 01:19:20;;;;;;;52.30;47.65;;;13.30;99.90;;;;;;6185630;23;20039;-82
2023/09/17 01:22:26;;;;;;;52.40;47.80;;;13.30;99.90;;;;;;6161307;23;20032;-82
2023/09/17 01:25:06;;;;;;;54.72;49.85;;;13.30;99.90;;;;;;6193486;23;20422;-82
2023/09/17 01:27:35;;;;;;;54.45;49.38;;;13.20;99.90;;;;;;6160768;23;20016;-82
2023/09/17 01:30:03;;;;;;;49.67;45.25;;;13.20;99.90;;;;;;6161316;23;20156;-82
2023/09/17 01:32:28;;;;;;;56.22;51.40;;;13.20;99.90;;;;;;6160623;23;20088;-81
2023/09/17 01:34:54;;;;;;;51.67;47.03;;;13.20;99.90;;;;;;6185748;23;20047;-82
2023/09/17 01:37:34;;;;;;;52.40;47.70;;;13.20;99.90;;;;;;6185783;23;20501;-81
2023/09/17 01:40:07;;;;;;;47.88;43.42;;;13.20;99.90;;;;;;6160128;23;20020;-82
2023/09/17 01:42:34;;;;;;;57.00;52.08;;;13.10;99.90;;;;;;6160748;23;20021;-82
2023/09/17 01:45:01;;;;;;;50.80;46.08;;;13.10;99.90;;;;;;6185468;23;20013;-82
2023/09/17 01:47:28;;;;;;;57.35;52.03;;;13.10;99.90;;;;;;6161253;23;20074;-82
2023/09/17 01:49:59;;;;;;;53.47;48.72;;;13.10;99.90;;;;;;6160411;23;20017;-82
2023/09/17 01:52:26;;;;;;;56.92;51.58;;;13.10;99.90;;;;;;6160670;23;20376;-82
2023/09/17 01:54:53;;;;;;;50.03;45.28;;;13.10;99.90;;;;;;6160032;23;20012;-82
2023/09/17 01:57:19;;;;;;;58.25;52.65;;;13.10;99.90;;;;;;6185284;23;20009;-81
2023/09/17 01:59:44;;;;;;;53.90;48.83;;;13.10;99.90;;;;;;6185625;23;20455;-82
2023/09/17 02:02:10;;;;;;;60.13;54.45;;;13.10;99.90;;;;;;6185172;23;20015;-82
2023/09/17 02:04:36;;;;;;;54.10;48.95;;;13.10;99.90;;;;;;6160133;23;20648;-81
2023/09/17 02:07:02;;;;;;;66.03;59.60;;;13.00;99.90;;;;;;6185524;23;20015;-82
2023/09/17 02:09:27;;;;;;;59.67;53.90;;;13.00;99.90;;;;;;6159671;23;20366;-82
2023/09/17 02:11:53;;;;;;;62.38;56.83;;;13.00;99.90;;;;;;6160486;23;20012;-82
2023/09/17 02:14:19;;;;;;;52.47;47.72;;;13.00;99.90;;;;;;6184696;23;20447;-81
2023/09/17 02:16:44;;;;;;;54.45;49.50;;;13.00;99.90;;;;;;6185067;23;20028;-82
2023/09/17 02:19:10;;;;;;;60.72;55.22;;;13.10;99.90;;;;;;6160311;23;20005;-81
2023/09/17 02:21:36;;;;;;;57.83;52.33;;;13.10;99.90;;;;;;6184953;23;20631;-82
2023/09/17 02:24:02;;;;;;;57.25;51.78;;;13.10;99.90;;;;;;6159687;23;20016;-82
2023/09/17 02:26:28;;;;;;;57.08;51.63;;;13.10;99.90;;;;;;6185303;23;20099;-81
2023/09/17 02:28:54;;;;;;;60.90;55.13;;;13.20;99.90;;;;;;6184272;23;20047;-82
2023/09/17 02:31:20;;;;;;;58.85;53.17;;;13.20;99.90;;;;;;6159771;23;20044;-82
2023/09/17 02:33:45;;;;;;;59.85;53.92;;;13.20;99.90;;;;;;6159467;23;20012;-82
2023/09/17 02:36:13;;;;;;;66.70;60.17;;;13.20;99.90;;;;;;6159630;23;20095;-82
2023/09/17 02:38:39;;;;;;;63.35;57.08;;;13.30;99.90;;;;;;6159362;23;20572;-82
2023/09/17 02:41:04;;;;;;;63.72;57.08;;;13.30;99.90;;;;;;6159494;23;20040;-82
2023/09/17 02:43:30;;;;;;;59.25;53.38;;;13.40;99.90;;;;;;6159797;23;20071;-82
2023/09/17 02:45:56;;;;;;;60.88;54.72;;;13.60;99.90;;;;;;6184163;23;20381;-82
2023/09/17 02:48:22;;;;;;;62.10;55.50;;;13.60;99.90;;;;;;6159189;23;20004;-82
2023/09/17 02:50:48;;;;;;;55.65;49.97;;;13.60;99.90;;;;;;6184683;23;20517;-81
2023/09/17 02:53:13;;;;;;;56.83;51.60;;;13.60;99.90;;;;;;6159041;23;20507;-82
2023/09/17 02:55:39;;;;;;;59.15;53.17;;;13.60;99.90;;;;;;6159506;23;20317;-82
2023/09/17 02:58:05;;;;;;;55.75;50.15;;;13.70;99.90;;;;;;6159651;23;20343;-81
2023/09/17 03:00:34;;;;;;;55.67;50.25;;;13.80;99.90;;;;;;6159428;23;20012;-82
2023/09/17 03:03:00;;;;;;;64.88;58.38;;;13.80;99.90;;;;;;6159832;23;20064;-82
2023/09/17 03:05:26;;;;;;;50.03;44.90;;;13.80;99.90;;;;;;6159116;23;20016;-82
2023/09/17 03:07:53;;;;;;;52.92;47.53;;;13.80;99.90;;;;;;6159025;23;20066;-82
2023/09/17 03:10:20;;;;;;;50.53;45.33;;;13.90;99.90;;;;;;6159841;23;20012;-82
2023/09/17 03:12:46;;;;;;;49.22;44.33;;;14.00;99.90;;;;;;6159386;23;20074;-82
2023/09/17 03:15:12;;;;;;;54.90;49.20;;;13.80;99.90;;;;;;6159457;23;20021;-82
2023/09/17 03:17:42;;;;;;;56.17;50.40;;;14.20;99.90;;;;;;6184077;23;20009;-83
2023/09/17 03:20:14;;;;;;;53.58;44.72;;;14.10;99.90;;;;;;6158934;23;20517;-82
2023/09/17 03:22:44;;;;;;;54.17;47.80;;;14.10;99.90;;;;;;6159026;23;20091;-82
2023/09/17 03:25:11;;;;;;;54.20;47.30;;;14.10;99.90;;;;;;6158906;23;20071;-82
2023/09/17 03:27:38;;;;;;;56.08;43.88;;;14.20;99.90;;;;;;6183948;23;20055;-82
2023/09/17 03:30:05;;;;;;;50.80;45.53;;;14.20;99.90;;;;;;6159118;23;20009;-82
2023/09/17 03:32:31;;;;;;;54.20;48.58;;;14.20;99.90;;;;;;6158770;23;20335;-82
2023/09/17 03:34:57;;;;;;;49.15;44.10;;;14.30;99.90;;;;;;6184035;23;20044;-82
2023/09/17 03:37:23;;;;;;;53.88;48.25;;;14.30;99.90;;;;;;6158596;23;20044;-81
2023/09/17 03:40:08;;;;;;;51.13;45.70;;;14.30;99.90;;;;;;6159211;23;20009;-82
2023/09/17 03:42:35;;;;;;;58.53;51.53;;;14.40;99.90;;;;;;6184094;23;20024;-81
2023/09/17 03:45:01;;;;;;;50.90;43.88;;;14.40;99.90;;;;;;6158945;23;20386;-81
2023/09/17 03:47:27;;;;;;;48.35;43.03;;;14.40;99.90;;;;;;6158409;23;20343;-81
2023/09/17 03:49:52;;;;;;;54.75;49.05;;;14.40;99.90;;;;;;6159223;23;20048;-82
2023/09/17 03:52:18;;;;;;;43.67;38.78;;;14.50;99.90;;;;;;6158599;23;20015;-82
2023/09/17 03:54:44;;;;;;;53.20;47.45;;;14.60;99.90;;;;;;6183916;23;20112;-82
2023/09/17 03:57:10;;;;;;;50.22;44.20;;;14.80;99.90;;;;;;6183878;23;20005;-82
2023/09/17 03:59:35;;;;;;;52.67;43.17;;;14.60;99.90;;;;;;6183572;23;20312;-82
2023/09/17 04:02:01;;;;;;;55.00;46.33;;;14.60;99.90;;;;;;6159207;23;20012;-82
2023/09/17 04:04:26;;;;;;;45.05;40.10;;;14.60;99.90;;;;;;6183084;23;20071;-82
2023/09/17 04:06:52;;;;;;;51.92;46.85;;;14.70;99.90;;;;;;6158939;23;20017;-81
2023/09/17 04:09:18;;;;;;;51.53;41.60;;;14.70;99.90;;;;;;6159346;23;20048;-82
2023/09/17 04:11:50;;;;;;;56.58;49.53;;;14.80;99.90;;;;;;6158677;23;20008;-85
2023/09/17 04:14:15;;;;;;;62.53;53.22;;;14.80;99.90;;;;;;6183706;23;20385;-83
2023/09/17 04:16:41;;;;;;;60.22;49.95;;;14.80;99.90;;;;;;6183895;23;20009;-82
2023/09/17 04:19:06;;;;;;;62.10;47.08;;;14.90;99.90;;;;;;6158247;23;20459;-83
2023/09/17 04:21:32;;;;;;;64.13;50.17;;;14.70;99.90;;;;;;6184056;23;20088;-82
2023/09/17 04:23:58;;;;;;;62.90;48.40;;;15.00;99.90;;;;;;6183671;23;20020;-83
2023/09/17 04:26:24;;;;;;;59.92;45.78;;;15.10;99.90;;;;;;6183799;23;20008;-83
2023/09/17 04:28:50;;;;;;;53.88;45.00;;;15.10;99.90;;;;;;6158606;23;20055;-82
2023/09/17 04:31:15;;;;;;;67.97;50.60;;;15.20;99.90;;;;;;6157734;23;20017;-84
2023/09/17 04:33:41;;;;;;;52.40;46.03;;;15.20;99.90;;;;;;6159843;23;20019;-83
2023/09/17 04:36:07;;;;;;;60.03;44.70;;;15.20;99.90;;;;;;6160927;23;20040;-83
2023/09/17 04:38:32;;;;;;;65.18;51.03;;;15.30;99.90;;;;;;6185788;23;20032;-83
2023/09/17 04:40:58;;;;;;;60.28;52.60;;;15.30;99.90;;;;;;6185981;23;20063;-83
2023/09/17 04:43:25;;;;;;;60.55;49.50;;;15.30;99.90;;;;;;6160991;23;20088;-83
2023/09/17 04:45:51;;;;;;;55.63;43.50;;;15.30;99.90;;;;;;6161377;23;20016;-83
2023/09/17 04:48:16;;;;;;;55.92;45.25;;;15.30;99.90;;;;;;6185001;23;20028;-83
2023/09/17 04:50:45;;;;;;;54.40;44.00;;;15.40;99.90;;;;;;6185203;23;20013;-83
2023/09/17 04:53:11;;;;;;;57.38;50.30;;;15.30;99.90;;;;;;6160936;23;20063;-83
2023/09/17 04:55:38;;;;;;;49.17;39.17;;;15.40;99.90;;;;;;6160219;23;20389;-83
2023/09/17 04:58:04;;;;;;;54.80;48.70;;;15.40;99.90;;;;;;6160316;23;20067;-83
2023/09/17 05:00:29;;;;;;;57.20;46.22;;;15.30;99.90;;;;;;6160399;23;20012;-82
2023/09/17 05:02:55;;;;;;;64.82;50.08;;;15.30;99.90;;;;;;6159822;23;20009;-83
2023/09/17 05:05:21;;;;;;;51.90;42.90;;;15.30;99.90;;;;;;6160751;23;20581;-82
2023/09/17 05:07:48;;;;;;;53.55;45.80;;;15.20;99.90;;;;;;6160607;23;20286;-82
2023/09/17 05:10:15;;;;;;;53.50;46.45;;;15.30;99.90;;;;;;6185363;23;20335;-83
2023/09/17 05:12:41;;;;;;;56.55;45.20;;;15.30;99.90;;;;;;6185172;23;20520;-83
2023/09/17 05:15:07;;;;;;;64.22;50.17;;;15.30;99.90;;;;;;6162601;23;20020;-82
2023/09/17 05:17:33;;;;;;;63.05;47.03;;;15.30;99.90;;;;;;6161714;23;20066;-83
2023/09/17 05:19:58;;;;;;;59.22;47.67;;;15.30;99.90;;;;;;6160192;23;20074;-82
2023/09/17 05:22:27;;;;;;;56.63;48.85;;;15.40;99.90;;;;;;6159985;23;20047;-82
2023/09/17 05:24:53;;;;;;;53.70;41.97;;;15.30;99.90;;;;;;6160351;23;20090;-82
2023/09/17 05:27:19;;;;;;;58.45;49.20;;;15.40;99.90;;;;;;6160364;23;20618;-82
2023/09/17 05:29:46;;;;;;;63.92;50.55;;;15.20;99.90;;;;;;6185390;23;20012;-82
2023/09/17 05:32:11;;;;;;;60.42;50.92;;;15.40;99.90;;;;;;6159849;23;20450;-82
2023/09/17 05:34:37;;;;;;;68.15;51.40;;;15.40;99.90;;;;;;6185115;23;20013;-82
2023/09/17 05:37:03;;;;;;;63.33;50.60;;;15.50;99.90;;;;;;6184963;23;20012;-82
2023/09/17 05:39:29;;;;;;;58.03;47.38;;;15.40;99.90;;;;;;6161747;23;20393;-82
2023/09/17 05:41:55;;;;;;;66.63;50.42;;;15.50;99.90;;;;;;6184610;23;20009;-82
2023/09/17 05:44:21;;;;;;;59.28;50.78;;;15.50;99.90;;;;;;6159759;23;20051;-82
2023/09/17 05:46:46;;;;;;;53.90;45.88;;;15.60;99.90;;;;;;6159358;23;20020;-82
2023/09/17 05:49:12;;;;;;;65.95;51.63;;;15.50;99.90;;;;;;6160339;23;20532;-82
2023/09/17 05:51:38;;;;;;;53.78;45.20;;;15.60;99.90;;;;;;6160053;23;20011;-82
2023/09/17 05:54:03;;;;;;;63.08;46.78;;;15.60;99.90;;;;;;6159858;23;20078;-82
2023/09/17 05:56:29;;;;;;;56.40;45.70;;;15.60;99.90;;;;;;6184939;23;20011;-82
2023/09/17 05:58:54;;;;;;;57.10;50.33;;;15.90;99.90;;;;;;6160150;23;20012;-82
2023/09/17 06:01:20;;;;;;;64.22;48.45;;;15.70;99.90;;;;;;6159541;23;20082;-82
2023/09/17 06:03:46;;;;;;;59.47;48.03;;;15.70;99.90;;;;;;6159664;23;20016;-82
2023/09/17 06:06:11;;;;;;;61.63;48.15;;;15.70;99.90;;;;;;6184439;23;20012;-82
2023/09/17 06:08:37;;;;;;;59.83;51.33;;;15.80;99.90;;;;;;6160809;23;20462;-81
2023/09/17 06:11:06;;;;;;;61.60;46.95;;;15.90;99.90;;;;;;6159958;23;20015;-82
2023/09/17 06:13:31;;;;;;;54.67;45.10;;;15.80;99.90;;;;;;6183885;23;20048;-81
2023/09/17 06:15:57;;;;;;;57.95;50.17;;;15.80;99.90;;;;;;6158041;23;20035;-82
2023/09/17 06:18:23;;;;;;;57.28;46.97;;;15.90;99.90;;;;;;6159940;23;20562;-82
2023/09/17 06:20:48;;;;;;;68.10;52.83;;;15.90;99.90;;;;;;6184400;23;20089;-81
2023/09/17 06:23:14;;;;;;;66.55;52.80;;;16.00;99.90;;;;;;6184248;23;20013;-81
2023/09/17 06:25:40;;;;;;;56.53;48.38;;;15.90;99.90;;;;;;6158651;23;20009;-80
2023/09/17 06:28:06;;;;;;;60.03;48.15;;;16.00;99.90;;;;;;6183327;23;20016;-80
2023/09/17 06:30:32;;;;;;;61.28;49.50;;;15.90;99.90;;;;;;6183001;23;20063;-80
2023/09/17 06:32:58;;;;;;;61.35;49.75;;;16.00;99.90;;;;;;6158873;23;20280;-81
2023/09/17 06:35:24;;;;;;;60.28;49.05;;;16.10;99.90;;;;;;6182226;23;20051;-81
2023/09/17 06:37:50;;;;;;;66.43;47.58;;;16.10;99.90;;;;;;6183459;23;20020;-81
2023/09/17 06:40:17;;;;;;;57.58;47.38;;;16.20;99.90;;;;;;6183475;23;20462;-81
2023/09/17 06:42:43;;;;;;;66.13;49.22;;;16.20;99.90;;;;;;6183845;23;20017;-81
2023/09/17 06:45:09;;;;;;;65.40;49.38;;;16.20;99.90;;;;;;6183052;23;20338;-81
2023/09/17 06:47:37;;;;;;;68.05;50.60;;;16.30;99.90;;;;;;6158863;23;20016;-81
2023/09/17 06:50:03;;;;;;;44.78;38.83;;;16.40;99.90;;;;;;6156300;23;20013;-81
2023/09/17 06:52:29;;;;;;;60.20;46.88;;;16.40;99.90;;;;;;6155667;23;20055;-81
2023/09/17 06:54:54;;;;;;;60.22;49.97;;;16.50;99.90;;;;;;6180936;23;20478;-81
2023/09/17 06:57:20;;;;;;;56.67;47.15;;;16.50;99.90;;;;;;6155428;23;20517;-81
2023/09/17 06:59:46;;;;;;;59.22;47.47;;;16.60;99.90;;;;;;6155590;23;20015;-81
2023/09/17 07:02:12;;;;;;;58.22;48.88;;;16.60;99.90;;;;;;6156656;23;20178;-81
2023/09/17 07:04:38;;;;;;;54.22;46.72;;;16.70;99.90;;;;;;6157684;23;20151;-81
2023/09/17 07:07:03;;;;;;;41.15;34.88;;;16.80;99.90;;;;;;6158402;23;20023;-81
2023/09/17 07:09:31;;;;;;;51.38;43.92;;;16.80;99.90;;;;;;6183256;23;20051;-81
2023/09/17 07:11:57;;;;;;;55.03;48.15;;;16.90;99.90;;;;;;6158333;23;20020;-80
2023/09/17 07:14:23;;;;;;;60.92;45.72;;;17.00;99.90;;;;;;6157630;23;20020;-81
2023/09/17 07:16:48;;;;;;;47.60;42.22;;;17.00;99.90;;;;;;6183370;23;20497;-80
2023/09/17 07:19:15;;;;;;;53.42;45.40;;;17.00;99.90;;;;;;6158465;23;20030;-81
2023/09/17 07:21:42;;;;;;;54.83;45.95;;;17.10;99.90;;;;;;6183321;23;20532;-80
2023/09/17 07:24:08;;;;;;;49.78;41.08;;;17.20;99.90;;;;;;6183306;23;20382;-80
2023/09/17 07:26:34;;;;;;;51.03;44.35;;;17.30;99.90;;;;;;6158291;23;20019;-81
2023/09/17 07:29:00;;;;;;;52.60;42.60;;;17.30;99.90;;;;;;6157834;23;20091;-80
2023/09/17 07:31:26;;;;;;;50.72;42.10;;;17.40;99.90;;;;;;6183318;23;20359;-81
2023/09/17 07:33:52;;;;;;;52.55;40.72;;;17.40;99.90;;;;;;6182947;23;20005;-81
2023/09/17 07:36:17;;;;;;;51.63;42.13;;;17.40;99.90;;;;;;6182933;23;20008;-81
2023/09/17 07:38:43;;;;;;;45.50;39.95;;;17.50;99.90;;;;;;6158286;23;20012;-81
2023/09/17 07:41:08;;;;;;;41.10;36.60;;;17.50;99.90;;;;;;6183021;23;20062;-80
2023/09/17 07:43:34;;;;;;;45.58;39.28;;;17.50;99.90;;;;;;6182545;23;20087;-80
2023/09/17 07:46:00;;;;;;;46.78;38.85;;;17.70;99.90;;;;;;6182908;23;20016;-81
2023/09/17 07:48:29;;;;;;;47.45;38.45;;;17.70;99.90;;;;;;6158320;23;20009;-81
2023/09/17 07:50:59;;;;;;;38.40;34.22;;;17.70;99.90;;;;;;6182958;23;20012;-81
2023/09/17 07:53:25;;;;;;;47.78;37.05;;;17.80;99.90;;;;;;6158078;23;20023;-81
2023/09/17 07:55:51;;;;;;;42.15;35.08;;;17.80;99.90;;;;;;6158448;23;20009;-80
2023/09/17 07:58:17;;;;;;;39.53;35.33;;;17.90;99.90;;;;;;6182166;23;20004;-81
2023/09/17 08:00:45;;;;;;;38.75;34.53;;;17.90;99.90;;;;;;6157866;23;20095;-80
2023/09/17 08:03:18;;;;;;;40.80;35.25;;;18.00;99.90;;;;;;6157830;23;20101;-81
2023/09/17 08:05:45;;;;;;;37.65;33.33;;;18.00;99.90;;;;;;6202927;23;20021;-81
2023/09/17 08:08:11;;;;;;;40.88;36.47;;;18.00;99.90;;;;;;6153225;23;20013;-81
2023/09/17 08:10:37;;;;;;;39.28;35.03;;;18.10;99.90;;;;;;6177723;23;20040;-81
2023/09/17 08:13:03;;;;;;;41.70;35.95;;;18.00;99.90;;;;;;6177444;23;20024;-81
2023/09/17 08:15:29;;;;;;;41.15;36.85;;;18.10;99.90;;;;;;6153085;23;20358;-81
2023/09/17 08:17:58;;;;;;;41.05;36.65;;;18.10;99.90;;;;;;6152907;23;20286;-80
2023/09/17 08:20:24;;;;;;;42.80;38.15;;;18.20;99.90;;;;;;6177707;23;20087;-81
2023/09/17 08:22:51;;;;;;;42.30;37.97;;;18.20;99.90;;;;;;6177608;23;20006;-81
2023/09/17 08:25:17;;;;;;;38.65;33.72;;;18.20;99.90;;;;;;6153309;23;20052;-81
2023/09/17 08:27:44;;;;;;;40.63;36.42;;;18.30;99.90;;;;;;6152760;23;20013;-81
2023/09/17 08:30:13;;;;;;;38.70;34.72;;;18.30;99.90;;;;;;6177600;23;20048;-81
2023/09/17 08:32:44;;;;;;;39.75;33.95;;;18.30;99.90;;;;;;6177656;23;20295;-81
2023/09/17 08:35:11;;;;;;;38.38;34.28;;;18.30;99.90;;;;;;6177769;23;20223;-81
2023/09/17 08:37:38;;;;;;;36.15;32.35;;;18.40;99.90;;;;;;6177691;23;20052;-81
2023/09/17 08:40:11;;;;;;;37.08;33.30;;;18.40;99.90;;;;;;6152453;23;20080;-81
2023/09/17 08:42:43;;;;;;;32.05;28.83;;;18.40;99.90;;;;;;6153060;23;20059;-81
2023/09/17 08:45:10;;;;;;;36.08;32.10;;;18.40;99.90;;;;;;6177713;23;20013;-81
2023/09/17 08:47:37;;;;;;;34.17;30.30;;;18.40;99.90;;;;;;6177600;23;20024;-81
2023/09/17 08:50:04;;;;;;;34.22;29.23;;;18.50;99.90;;;;;;6152831;23;20051;-81
2023/09/17 08:52:35;;;;;;;34.00;30.40;;;18.50;99.90;;;;;;6152650;23;20012;-80
2023/09/17 08:55:04;;;;;;;29.60;26.60;;;18.60;99.90;;;;;;6179095;23;20020;-82
2023/09/17 08:57:33;;;;;;;32.95;29.55;;;18.70;99.90;;;;;;6177945;23;20039;-81
2023/09/17 09:00:09;;;;;;;31.60;28.30;;;18.70;99.90;;;;;;6153676;23;20024;-81
2023/09/17 09:02:55;;;;;;;29.27;26.30;;;18.70;99.90;;;;;;6178131;23;20013;-82
2023/09/17 09:05:25;;;;;;;30.90;27.70;;;18.70;99.90;;;;;;6178380;23;20013;-82
2023/09/17 09:07:51;;;;;;;29.23;26.23;;;18.80;99.90;;;;;;6178492;23;20064;-82
2023/09/17 09:10:18;;;;;;;34.22;29.10;;;18.80;99.90;;;;;;6177744;23;20745;-81
2023/09/17 09:12:45;;;;;;;36.83;33.35;;;18.90;99.90;;;;;;6178146;23;20044;-81
2023/09/17 09:15:11;;;;;;;34.22;29.65;;;18.80;99.90;;;;;;6177891;23;20023;-81
2023/09/17 09:17:38;;;;;;;30.63;26.95;;;18.90;99.90;;;;;;6178150;23;20013;-81
2023/09/17 09:20:16;;;;;;;34.28;27.65;;;19.00;99.90;;;;;;6179755;23;20067;-81
2023/09/17 09:22:43;;;;;;;29.10;26.08;;;19.10;99.90;;;;;;6154975;23;20135;-80
2023/09/17 09:25:12;;;;;;;29.25;26.02;;;19.00;99.90;;;;;;6154569;23;20013;-80
2023/09/17 09:27:37;;;;;;;29.08;26.00;;;19.10;99.90;;;;;;6179668;23;20013;-80
2023/09/17 09:30:07;;;;;;;29.60;26.48;;;19.10;99.90;;;;;;6155149;23;20325;-80
2023/09/17 09:32:33;;;;;;;29.23;26.33;;;19.20;99.90;;;;;;6155015;23;20013;-80
2023/09/17 09:35:01;;;;;;;25.65;23.05;;;19.10;99.90;;;;;;6178983;23;20043;-80
2023/09/17 09:37:27;;;;;;;28.38;25.35;;;19.20;99.90;;;;;;6179201;23;20041;-78
2023/09/17 09:39:52;;;;;;;27.80;24.98;;;19.30;99.90;;;;;;6153690;23;20016;-78
2023/09/17 09:42:18;;;;;;;25.83;23.33;;;19.30;99.90;;;;;;6180561;23;20067;-80
2023/09/17 09:44:45;;;;;;;25.98;23.25;;;19.30;99.90;;;;;;6156152;23;20021;-79
2023/09/17 09:47:13;;;;;;;27.52;24.73;;;19.40;99.90;;;;;;6154856;23;20399;-81
2023/09/17 09:49:44;;;;;;;26.80;24.08;;;19.50;99.90;;;;;;6179554;23;20406;-81
2023/09/17 09:52:24;;;;;;;28.42;25.52;;;19.50;99.90;;;;;;6154933;23;20110;-81
2023/09/17 09:54:58;;;;;;;26.05;23.50;;;19.40;99.90;;;;;;6154433;23;20511;-80
2023/09/17 09:57:25;;;;;;;26.00;23.40;;;19.50;99.90;;;;;;6154760;23;20482;-81
2023/09/17 09:59:51;;;;;;;27.17;23.50;;;19.60;99.90;;;;;;6154570;23;20022;-81
2023/09/17 10:02:20;;;;;;;26.65;23.85;;;19.60;99.90;;;;;;6155227;23;20084;-80
2023/09/17 10:04:46;;;;;;;28.35;25.60;;;19.60;99.90;;;;;;6154548;23;20009;-81
2023/09/17 10:07:17;;;;;;;27.50;24.58;;;19.50;99.90;;;;;;6178929;23;20013;-80
2023/09/17 10:09:43;;;;;;;25.70;23.10;;;19.50;99.90;;;;;;6154837;23;20020;-81
2023/09/17 10:12:09;;;;;;;26.25;23.55;;;19.60;99.90;;;;;;6178664;23;20017;-81
2023/09/17 10:14:39;;;;;;;25.75;23.27;;;19.60;99.90;;;;;;6153958;23;20013;-81
2023/09/17 10:17:06;;;;;;;26.40;23.88;;;19.60;99.90;;;;;;6179177;23;20088;-81
2023/09/17 10:19:34;;;;;;;31.17;27.25;;;19.70;99.90;;;;;;6179148;23;20016;-80
2023/09/17 10:22:03;;;;;;;30.55;27.50;;;19.80;99.90;;;;;;6178492;23;20384;-81
2023/09/17 10:24:30;;;;;;;29.58;26.77;;;19.80;99.90;;;;;;6154151;23;20439;-80
2023/09/17 10:26:59;;;;;;;29.33;26.33;;;19.90;99.90;;;;;;6154674;23;20009;-80
2023/09/17 10:29:29;;;;;;;28.05;25.15;;;19.90;99.90;;;;;;6154904;23;20017;-81
2023/09/17 10:31:56;;;;;;;29.85;26.40;;;19.90;99.90;;;;;;6154470;23;20024;-80
2023/09/17 10:34:24;;;;;;;31.08;28.08;;;19.90;99.90;;;;;;6154537;23;20013;-81
2023/09/17 10:36:50;;;;;;;31.00;28.02;;;19.90;99.90;;;;;;6153862;23;20005;-81
2023/09/17 10:39:17;;;;;;;31.95;28.65;;;20.00;99.90;;;;;;6179525;23;20443;-80
2023/09/17 10:41:44;;;;;;;28.27;25.35;;;20.00;99.90;;;;;;6179217;23;20013;-81
2023/09/17 10:44:13;;;;;;;29.55;26.65;;;20.10;99.90;;;;;;6154366;23;20443;-80
2023/09/17 10:46:45;;;;;;;30.63;27.80;;;20.20;99.90;;;;;;6154516;23;20013;-80
2023/09/17 10:49:11;;;;;;;32.42;28.83;;;20.20;99.90;;;;;;6154209;23;20463;-81
2023/09/17 10:51:39;;;;;;;31.95;28.60;;;20.20;99.90;;;;;;6153008;23;20689;-80
2023/09/17 10:54:05;;;;;;;31.20;28.00;;;20.10;99.90;;;;;;6153039;23;20013;-80
2023/09/17 10:56:31;;;;;;;29.55;26.65;;;20.00;99.90;;;;;;6152019;23;20015;-81
2023/09/17 10:58:59;;;;;;;33.00;29.73;;;20.00;99.90;;;;;;6178100;23;20009;-81
2023/09/17 11:01:34;;;;;;;32.33;28.92;;;20.00;99.90;;;;;;6154064;23;20065;-81
2023/09/17 11:04:10;;;;;;;33.50;29.77;;;20.00;99.90;;;;;;6177415;23;20336;-80
2023/09/17 11:06:37;;;;;;;33.17;29.73;;;20.20;99.90;;;;;;6153440;23;20436;-81
2023/09/17 11:09:06;;;;;;;28.10;25.35;;;20.50;99.90;;;;;;6153444;23;20017;-81
2023/09/17 11:11:34;;;;;;;32.65;29.30;;;20.70;99.90;;;;;;6154115;23;20009;-80
2023/09/17 11:14:02;;;;;;;31.23;27.23;;;20.70;99.90;;;;;;6153587;23;20013;-81
2023/09/17 11:16:29;;;;;;;28.73;25.60;;;20.90;99.90;;;;;;6153300;23;20048;-80
2023/09/17 11:19:13;;;;;;;29.60;26.60;;;20.90;99.90;;;;;;6153302;23;20009;-80
2023/09/17 11:21:46;;;;;;;29.38;26.63;;;20.90;99.90;;;;;;6177814;23;20040;-80
2023/09/17 11:24:12;;;;;;;31.48;28.38;;;21.10;99.90;;;;;;6153889;23;20025;-80
2023/09/17 11:26:41;;;;;;;30.45;27.50;;;21.10;99.90;;;;;;6178450;23;20009;-81
2023/09/17 11:29:09;;;;;;;28.60;25.80;;;21.20;99.90;;;;;;6178872;23;20107;-80
2023/09/17 11:31:36;;;;;;;28.60;25.77;;;21.10;99.90;;;;;;6178704;23;20024;-79
2023/09/17 11:34:09;;;;;;;31.02;28.10;;;21.10;99.90;;;;;;6154644;23;20023;-80
2023/09/17 11:36:35;;;;;;;26.80;24.25;;;21.00;99.90;;;;;;6153975;23;20340;-81
2023/09/17 11:39:07;;;;;;;29.17;26.52;;;20.90;99.90;;;;;;6154172;23;20015;-81
2023/09/17 11:41:36;;;;;;;26.55;24.13;;;20.90;99.90;;;;;;6153274;23;20013;-80
2023/09/17 11:44:04;;;;;;;28.95;26.08;;;20.90;99.90;;;;;;6178486;23;20009;-80
2023/09/17 11:46:31;;;;;;;27.73;25.02;;;20.80;99.90;;;;;;6153647;23;20020;-78
2023/09/17 11:48:56;;;;;;;30.83;27.88;;;21.00;99.90;;;;;;6173136;23;20025;-80
2023/09/17 11:51:29;;;;;;;28.45;25.83;;;21.00;99.90;;;;;;6152565;23;20070;-80
2023/09/17 11:54:03;;;;;;;27.23;24.60;;;21.20;99.90;;;;;;6176772;23;20013;-80
2023/09/17 11:56:33;;;;;;;28.00;25.30;;;21.40;99.90;;;;;;6153416;23;20029;-80
2023/09/17 11:59:03;;;;;;;28.05;25.15;;;21.60;99.90;;;;;;6177510;23;20013;-81
2023/09/17 12:01:35;;;;;;;31.40;28.27;;;21.70;99.90;;;;;;6177846;23;20062;-80
2023/09/17 12:04:03;;;;;;;27.00;24.20;;;21.90;99.90;;;;;;6152351;23;20029;-81
2023/09/17 12:06:29;;;;;;;26.77;24.20;;;21.90;99.90;;;;;;6152622;23;20344;-80
2023/09/17 12:08:59;;;;;;;26.80;24.10;;;21.90;99.90;;;;;;6152428;23;20068;-80
2023/09/17 12:11:26;;;;;;;24.13;21.80;;;22.10;99.90;;;;;;6153149;23;20088;-81
2023/09/17 12:13:53;;;;;;;23.45;21.20;;;22.00;99.90;;;;;;6153403;23;20013;-81
2023/09/17 12:16:22;;;;;;;24.45;22.20;;;22.10;99.90;;;;;;6177948;23;20013;-79
2023/09/17 12:18:50;;;;;;;23.90;21.67;;;22.20;99.90;;;;;;6176793;23;20013;-80
2023/09/17 12:21:16;;;;;;;25.33;22.85;;;22.30;99.90;;;;;;6152540;23;20060;-80
2023/09/17 12:26:37;;;;;;;27.13;22.90;;;22.60;99.90;;;;;;6203157;23;20135;-81
2023/09/17 12:29:10;;;;;;;24.38;22.08;;;22.50;99.90;;;;;;6177909;23;20067;-80
2023/09/17 12:31:36;;;;;;;25.85;23.40;;;22.60;99.90;;;;;;6152956;23;20020;-80